Time;durP1;ratioP1;P1;durP2;ratioP2;P2;SDS_P1;SDS_P2;PMS_P1;PMS_P2;Temp;Humidity;BMP_temperature;BMP_pressure;BME280_temperature;BME280_humidity;BME280_pressure;Samples;Min_cycle;Max_cycle;Signal;HPM_P1;HPM_P2
2024/01/29 00:02:16;;;;;;;8.88;5.40;;;;;;;5.86;78.16;102386.06;5020757;28;20042;-87
2024/01/29 00:04:42;;;;;;;8.20;5.60;;;;;;;5.72;78.05;102375.72;5019376;28;20038;-93
2024/01/29 00:07:07;;;;;;;9.05;5.47;;;;;;;5.73;78.64;102379.22;5015318;28;20045;-94
2024/01/29 00:09:33;;;;;;;11.43;5.07;;;;;;;5.76;79.67;102389.91;5018142;28;20033;-96
2024/01/29 00:11:59;;;;;;;8.07;5.35;;;;;;;5.78;79.29;102385.63;5016721;28;20088;-95
2024/01/29 00:14:24;;;;;;;8.90;5.25;;;;;;;5.77;78.83;102376.84;5014556;28;20417;-95
2024/01/29 00:16:50;;;;;;;10.23;5.60;;;;;;;5.87;78.49;102380.00;5022208;28;20045;-96
2024/01/29 00:19:15;;;;;;;8.98;5.13;;;;;;;5.94;78.71;102382.16;4999348;28;20057;-91
2024/01/29 00:21:40;;;;;;;7.97;5.28;;;;;;;5.98;78.52;102398.16;5009060;28;20030;-95
2024/01/29 00:24:06;;;;;;;8.85;5.57;;;;;;;6.05;78.01;102393.25;5017738;28;20053;-96
2024/01/29 00:26:31;;;;;;;11.48;5.40;;;;;;;6.07;77.96;102389.88;5015176;28;20045;-94
2024/01/29 00:28:57;;;;;;;8.65;5.18;;;;;;;6.03;77.55;102388.81;5015176;28;20407;-95
2024/01/29 00:31:25;;;;;;;8.63;5.35;;;;;;;5.99;77.54;102383.31;5014635;28;20088;-94
2024/01/29 00:33:52;;;;;;;9.43;5.60;;;;;;;6.01;77.89;102381.69;5013399;28;20076;-95
2024/01/29 00:36:17;;;;;;;11.77;5.30;;;;;;;5.85;78.27;102369.41;5014212;28;20034;-94
2024/01/29 00:38:43;;;;;;;8.35;5.50;;;;;;;5.77;78.43;102368.09;5014272;28;20372;-93
2024/01/29 00:41:08;;;;;;;8.45;5.65;;;;;;;5.75;78.64;102372.38;5014789;28;20053;-94
2024/01/29 00:43:34;;;;;;;9.27;5.47;;;;;;;5.76;78.88;102371.53;4996357;28;20049;-93
2024/01/29 00:45:59;;;;;;;8.40;5.47;;;;;;;5.80;78.29;102364.75;4996260;28;20085;-95
2024/01/29 00:48:25;;;;;;;9.88;5.05;;;;;;;5.74;77.72;102352.22;5013902;28;20037;-94
2024/01/29 00:50:51;;;;;;;10.32;5.40;;;;;;;5.69;78.43;102351.94;5013955;28;20435;-95
2024/01/29 00:53:16;;;;;;;8.85;5.10;;;;;;;5.81;78.46;102372.69;5013902;28;20029;-93
2024/01/29 00:55:48;;;;;;;13.45;5.72;;;;;;;5.75;78.47;102375.00;5013655;28;20443;-94
2024/01/29 00:58:14;;;;;;;9.93;5.38;;;;;;;5.64;78.32;102356.03;5013647;28;20204;-94
2024/01/29 01:00:39;;;;;;;10.30;5.45;;;;;;;5.62;78.67;102357.69;5013413;28;20038;-94
2024/01/29 01:03:05;;;;;;;8.55;5.30;;;;;;;5.55;79.18;102357.25;4996886;28;20060;-95
2024/01/29 01:05:32;;;;;;;10.07;5.70;;;;;;;5.53;79.61;102368.56;4996316;28;20149;-95
2024/01/29 01:07:58;;;;;;;10.32;5.70;;;;;;;5.48;79.72;102371.72;5013512;28;20041;-95
2024/01/29 01:10:24;;;;;;;10.95;6.10;;;;;;;5.45;80.40;102379.44;5014006;28;20040;-96
2024/01/29 01:12:49;;;;;;;9.50;5.55;;;;;;;5.43;79.63;102396.78;5014256;28;20034;-95
2024/01/29 01:15:15;;;;;;;12.43;5.70;;;;;;;5.38;80.82;102396.53;5013758;28;20037;-94
2024/01/29 01:17:40;;;;;;;10.30;5.78;;;;;;;5.36;80.98;102397.28;5014152;28;20076;-94
2024/01/29 01:20:06;;;;;;;11.55;5.57;;;;;;;5.37;81.62;102407.84;5013375;28;20489;-94
2024/01/29 01:22:32;;;;;;;9.45;5.57;;;;;;;5.34;80.88;102397.16;5014690;28;20038;-95
2024/01/29 01:24:57;;;;;;;8.85;5.57;;;;;;;5.35;80.65;102391.09;5013481;28;20034;-95
2024/01/29 01:27:22;;;;;;;9.07;4.93;;;;;;;5.56;80.69;102396.66;5013655;28;20030;-95
2024/01/29 01:29:48;;;;;;;9.15;5.30;;;;;;;5.60;79.85;102396.00;4996274;28;20482;-94
2024/01/29 01:32:13;;;;;;;9.82;5.93;;;;;;;5.63;79.46;102408.41;5013558;28;20382;-92
2024/01/29 01:34:39;;;;;;;9.75;5.30;;;;;;;5.67;79.89;102405.13;5013630;28;20103;-92
2024/01/29 01:37:04;;;;;;;8.52;5.30;;;;;;;5.65;80.69;102396.25;5013514;28;20041;-94
2024/01/29 01:39:31;;;;;;;10.65;5.78;;;;;;;5.60;79.57;102375.03;4995896;28;20034;-94
2024/01/29 01:41:56;;;;;;;9.32;5.75;;;;;;;5.74;79.40;102400.31;5013862;28;20475;-93
2024/01/29 01:44:21;;;;;;;7.60;5.07;;;;;;;5.77;79.89;102403.09;5015201;28;20168;-93
2024/01/29 01:46:47;;;;;;;13.48;5.68;;;;;;;5.75;79.24;102407.38;5017717;28;20034;-94
2024/01/29 01:49:13;;;;;;;10.05;5.43;;;;;;;5.64;79.96;102379.63;5003947;28;20458;-95
2024/01/29 01:51:39;;;;;;;8.25;5.40;;;;;;;5.86;79.98;102401.78;5011797;28;20463;-93
2024/01/29 01:54:07;;;;;;;8.82;5.57;;;;;;;5.89;79.81;102401.97;5033728;28;20462;-92
2024/01/29 01:56:33;;;;;;;8.07;5.25;;;;;;;5.84;78.98;102388.59;5023771;28;20034;-95
2024/01/29 01:59:03;;;;;;;7.47;5.20;;;;;;;5.77;78.19;102396.94;5017644;28;20030;-95
2024/01/29 02:01:28;;;;;;;9.77;5.55;;;;;;;5.76;78.67;102411.78;5017160;28;20074;-93
2024/01/29 02:03:54;;;;;;;7.85;5.13;;;;;;;5.76;80.64;102409.16;5017079;28;20378;-94
2024/01/29 02:06:20;;;;;;;8.90;5.70;;;;;;;5.71;80.30;102391.38;5017224;28;20034;-94
2024/01/29 02:08:45;;;;;;;9.85;5.82;;;;;;;5.75;79.25;102410.00;5018066;28;20054;-94
2024/01/29 02:11:11;;;;;;;8.65;5.32;;;;;;;5.69;80.15;102375.53;5017379;28;20030;-95
2024/01/29 02:13:36;;;;;;;8.02;5.35;;;;;;;5.86;79.16;102402.69;5016548;28;20037;-94
2024/01/29 02:16:03;;;;;;;9.63;5.63;;;;;;;5.92;79.21;102399.56;4999228;28;20033;-94
2024/01/29 02:18:29;;;;;;;7.80;5.40;;;;;;;5.86;79.16;102399.16;5016494;28;20474;-95
2024/01/29 02:20:55;;;;;;;8.93;5.70;;;;;;;5.87;79.02;102401.91;5016665;28;20032;-96
2024/01/29 02:23:21;;;;;;;8.73;5.78;;;;;;;5.84;79.06;102399.09;5017437;28;20034;-94
2024/01/29 02:25:46;;;;;;;8.85;5.57;;;;;;;5.81;79.29;102391.06;5016261;28;20030;-94
2024/01/29 02:28:12;;;;;;;8.55;5.60;;;;;;;5.86;79.47;102410.56;4998612;28;20103;-95
2024/01/29 02:30:37;;;;;;;11.15;5.85;;;;;;;5.77;79.02;102395.22;4999181;28;20440;-94
2024/01/29 02:33:03;;;;;;;11.02;6.30;;;;;;;5.61;78.86;102384.72;4998828;28;20026;-93
2024/01/29 02:35:28;;;;;;;8.40;5.47;;;;;;;5.64;79.59;102392.75;4998470;28;20475;-96
2024/01/29 02:37:54;;;;;;;10.27;5.55;;;;;;;5.62;79.53;102385.63;5016215;28;20100;-95
2024/01/29 02:40:19;;;;;;;11.77;5.72;;;;;;;5.66;80.21;102392.84;5015962;28;20033;-96
2024/01/29 02:42:45;;;;;;;9.70;5.38;;;;;;;5.75;80.00;102398.59;5015912;28;20489;-95
2024/01/29 02:45:10;;;;;;;8.52;5.60;;;;;;;5.71;80.06;102386.13;5015786;28;20036;-93
2024/01/29 02:47:36;;;;;;;8.55;5.85;;;;;;;5.70;80.10;102385.22;4998235;28;20034;-94
2024/01/29 02:50:01;;;;;;;8.85;5.50;;;;;;;5.80;79.67;102398.84;5015603;28;20030;-93
2024/01/29 02:52:26;;;;;;;11.80;5.75;;;;;;;5.76;79.30;102408.25;4981860;28;20033;-95
2024/01/29 02:54:52;;;;;;;8.63;5.10;;;;;;;5.71;79.38;102399.25;5015677;28;20046;-96
2024/01/29 02:57:23;;;;;;;8.88;5.75;;;;;;;5.63;80.31;102397.91;4997256;28;20034;-95
2024/01/29 02:59:49;;;;;;;14.38;5.80;;;;;;;5.54;80.78;102398.31;5015638;28;20040;-95
2024/01/29 03:02:14;;;;;;;11.35;5.45;;;;;;;5.40;81.01;102381.81;5015398;28;20030;-93
2024/01/29 03:04:40;;;;;;;10.63;5.72;;;;;;;5.35;81.35;102393.72;5015537;28;20421;-93
2024/01/29 03:07:05;;;;;;;8.98;5.60;;;;;;;5.23;82.24;102391.34;4981472;28;20050;-94
2024/01/29 03:09:31;;;;;;;12.55;5.43;;;;;;;5.13;83.74;102391.59;5015308;28;20561;-93
2024/01/29 03:11:56;;;;;;;9.55;6.07;;;;;;;5.02;83.74;102395.34;5015590;28;20478;-94
2024/01/29 03:14:21;;;;;;;10.35;5.85;;;;;;;4.99;83.61;102392.53;4982248;28;20042;-94
2024/01/29 03:16:47;;;;;;;11.15;5.95;;;;;;;5.01;83.22;102401.38;5016404;28;20450;-94
2024/01/29 03:19:12;;;;;;;9.25;6.18;;;;;;;4.97;84.16;102402.03;5015925;28;20045;-94
2024/01/29 03:21:38;;;;;;;11.20;5.57;;;;;;;4.91;83.86;102401.66;5016235;28;20374;-93
2024/01/29 03:24:03;;;;;;;10.82;6.20;;;;;;;4.84;84.46;102387.31;5017436;28;20121;-94
2024/01/29 03:26:29;;;;;;;9.50;5.85;;;;;;;4.94;83.78;102404.47;5004273;28;20040;-92
2024/01/29 03:28:54;;;;;;;12.77;5.80;;;;;;;4.92;84.21;102391.25;5017560;28;20042;-91
2024/01/29 03:31:20;;;;;;;8.90;5.25;;;;;;;5.12;85.25;102402.91;5032226;28;20359;-93
2024/01/29 03:33:45;;;;;;;10.55;5.95;;;;;;;5.18;83.41;102402.34;5017681;28;20030;-93
2024/01/29 03:36:11;;;;;;;10.80;6.20;;;;;;;5.18;83.42;102389.25;4998415;28;20394;-94
2024/01/29 03:38:36;;;;;;;11.75;5.55;;;;;;;5.23;83.44;102408.78;5015781;28;20057;-92
2024/01/29 03:41:02;;;;;;;7.93;5.40;;;;;;;5.16;83.21;102402.25;5015830;28;20030;-94
2024/01/29 03:43:27;;;;;;;9.68;6.15;;;;;;;5.05;84.16;102400.72;5016123;28;20034;-93
2024/01/29 03:45:53;;;;;;;10.82;5.95;;;;;;;4.96;84.34;102394.97;5015808;28;20034;-93
2024/01/29 03:48:19;;;;;;;10.13;5.90;;;;;;;4.95;84.29;102399.31;4998186;28;20108;-93
2024/01/29 03:50:44;;;;;;;8.07;5.40;;;;;;;5.06;85.32;102404.28;5016005;28;20058;-92
2024/01/29 03:53:09;;;;;;;10.25;6.03;;;;;;;5.13;84.32;102422.13;5015621;28;20054;-93
2024/01/29 03:55:35;;;;;;;10.25;5.80;;;;;;;5.12;85.25;102423.88;5015378;28;20125;-94
2024/01/29 03:58:00;;;;;;;8.73;5.78;;;;;;;5.10;84.61;102425.50;5015494;28;20065;-94
2024/01/29 04:00:26;;;;;;;9.35;5.65;;;;;;;5.02;84.68;102411.94;5014834;28;20030;-92
2024/01/29 04:02:52;;;;;;;9.68;6.35;;;;;;;4.97;84.90;102417.75;5015540;28;20095;-92
2024/01/29 04:05:18;;;;;;;8.35;5.50;;;;;;;4.99;85.54;102414.38;5015327;28;20030;-93
2024/01/29 04:07:44;;;;;;;12.32;6.25;;;;;;;4.96;84.67;102422.06;5014806;28;20046;-93
2024/01/29 04:10:10;;;;;;;11.07;6.10;;;;;;;4.93;85.11;102428.84;5014529;28;20034;-95
2024/01/29 04:12:35;;;;;;;11.77;6.45;;;;;;;4.95;85.28;102421.97;5014308;28;20034;-92
2024/01/29 04:15:01;;;;;;;9.18;5.53;;;;;;;4.97;84.73;102420.38;5014690;28;20105;-92
2024/01/29 04:17:26;;;;;;;8.75;5.60;;;;;;;5.01;85.10;102414.47;5014211;28;20030;-92
2024/01/29 04:19:51;;;;;;;9.45;5.75;;;;;;;5.04;84.76;102409.41;4996567;28;20038;-92
2024/01/29 04:22:17;;;;;;;9.55;5.45;;;;;;;5.11;85.12;102415.94;5014054;28;20462;-93
2024/01/29 04:24:42;;;;;;;8.02;5.68;;;;;;;5.14;84.43;102413.47;5013895;28;20440;-92
2024/01/29 04:27:08;;;;;;;10.38;5.65;;;;;;;5.09;83.95;102414.91;5013925;28;20039;-91
2024/01/29 04:29:33;;;;;;;11.10;5.68;;;;;;;5.11;84.56;102422.06;4996547;28;20037;-92
2024/01/29 04:31:58;;;;;;;8.32;5.97;;;;;;;5.02;84.40;102408.44;4996263;28;20065;-92
2024/01/29 04:34:24;;;;;;;8.95;5.78;;;;;;;5.05;85.14;102424.31;4996624;28;20113;-92
2024/01/29 04:36:49;;;;;;;10.95;5.47;;;;;;;5.03;85.79;102428.56;5014443;28;20451;-92
2024/01/29 04:39:14;;;;;;;8.90;5.75;;;;;;;5.14;85.24;102426.56;4996799;28;20040;-93
2024/01/29 04:41:40;;;;;;;11.10;5.90;;;;;;;5.16;84.66;102420.59;5013751;28;20041;-91
2024/01/29 04:44:05;;;;;;;11.07;5.90;;;;;;;5.28;84.35;102420.41;5013809;28;20121;-92
2024/01/29 04:46:31;;;;;;;9.27;5.53;;;;;;;5.37;83.70;102428.81;5014250;28;20037;-92
2024/01/29 04:48:56;;;;;;;9.20;5.72;;;;;;;5.27;83.12;102430.00;4996498;28;20034;-91
2024/01/29 04:51:21;;;;;;;8.60;5.35;;;;;;;5.03;83.34;102400.66;5013456;28;20045;-90
2024/01/29 04:53:47;;;;;;;9.77;5.63;;;;;;;5.20;84.34;102425.22;5013895;28;20038;-90
2024/01/29 04:56:12;;;;;;;9.27;5.40;;;;;;;5.26;84.30;102429.91;5013401;28;20087;-91
2024/01/29 04:58:38;;;;;;;9.25;5.57;;;;;;;5.25;83.97;102436.84;5014522;28;20045;-91
2024/01/29 05:01:04;;;;;;;12.32;5.40;;;;;;;5.24;83.99;102437.69;5014713;28;20037;-93
2024/01/29 05:03:29;;;;;;;9.80;5.70;;;;;;;5.22;84.20;102428.84;5030523;28;20516;-91
2024/01/29 05:05:55;;;;;;;10.25;5.47;;;;;;;5.13;83.88;102406.41;5031693;28;20044;-92
2024/01/29 05:08:21;;;;;;;8.15;5.60;;;;;;;5.11;83.59;102397.59;5019120;28;20133;-93
2024/01/29 05:10:46;;;;;;;10.00;5.85;;;;;;;5.26;83.56;102424.66;4996868;28;20049;-94
2024/01/29 05:13:12;;;;;;;8.35;5.35;;;;;;;5.24;83.16;102416.72;4996279;28;20091;-91
2024/01/29 05:15:38;;;;;;;10.13;5.60;;;;;;;5.34;83.27;102427.72;5013541;28;20062;-92
2024/01/29 05:18:03;;;;;;;10.15;5.30;;;;;;;5.28;83.13;102416.06;5014373;28;20030;-92
2024/01/29 05:20:30;;;;;;;11.85;5.43;;;;;;;5.19;83.77;102412.03;5016437;28;20463;-92
2024/01/29 05:22:55;;;;;;;7.35;5.22;;;;;;;5.10;84.25;102419.38;5017933;28;20096;-92
2024/01/29 05:25:21;;;;;;;8.30;5.32;;;;;;;5.13;84.10;102427.38;5017508;28;20425;-92
2024/01/29 05:27:46;;;;;;;9.23;5.28;;;;;;;5.03;85.02;102407.63;5017135;28;20042;-90
2024/01/29 05:30:12;;;;;;;9.63;5.65;;;;;;;5.13;84.38;102427.38;5017368;28;20422;-92
2024/01/29 05:32:37;;;;;;;8.65;5.18;;;;;;;5.00;84.70;102410.94;5017514;28;20036;-90
2024/01/29 05:35:04;;;;;;;7.50;5.32;;;;;;;4.95;84.25;102412.41;5017579;28;20398;-91
2024/01/29 05:37:31;;;;;;;6.97;4.90;;;;;;;5.01;84.92;102424.94;5016920;28;20058;-92
2024/01/29 05:39:57;;;;;;;9.27;5.43;;;;;;;4.78;85.25;102395.69;5017379;28;20060;-92
2024/01/29 05:42:22;;;;;;;9.02;5.55;;;;;;;4.90;84.46;102420.81;4999365;28;20108;-91
2024/01/29 05:44:47;;;;;;;9.75;5.72;;;;;;;4.81;85.10;102418.56;4999403;28;20034;-91
2024/01/29 05:47:13;;;;;;;9.95;5.38;;;;;;;4.80;84.35;102431.53;5017236;28;20458;-92
2024/01/29 05:49:38;;;;;;;9.60;5.10;;;;;;;4.76;85.63;102439.22;5017343;28;20089;-91
2024/01/29 05:52:04;;;;;;;9.25;5.28;;;;;;;4.72;86.05;102429.38;5017992;28;20034;-92
2024/01/29 05:54:29;;;;;;;8.30;5.43;;;;;;;4.83;86.64;102429.09;5017927;28;20037;-92
2024/01/29 05:56:56;;;;;;;8.75;5.78;;;;;;;4.84;86.00;102421.34;5000000;28;20034;-92
2024/01/29 05:59:22;;;;;;;10.02;5.72;;;;;;;5.02;87.61;102447.72;5016951;28;20437;-92
2024/01/29 06:01:47;;;;;;;8.15;5.30;;;;;;;5.08;85.83;102453.31;5016848;28;20034;-92
2024/01/29 06:04:13;;;;;;;9.02;5.75;;;;;;;5.03;85.86;102445.19;5016801;28;20509;-92
2024/01/29 06:06:38;;;;;;;12.98;5.43;;;;;;;4.81;85.82;102418.56;4999135;28;20041;-92
2024/01/29 06:09:06;;;;;;;13.27;5.80;;;;;;;4.80;86.17;102440.31;5016405;28;20386;-92
2024/01/29 06:11:31;;;;;;;9.38;5.25;;;;;;;4.80;87.21;102453.41;5016359;28;20025;-92
2024/01/29 06:13:58;;;;;;;8.80;5.38;;;;;;;4.80;87.85;102453.41;5016275;28;20026;-93
2024/01/29 06:16:25;;;;;;;8.82;5.40;;;;;;;4.73;88.17;102435.53;5016593;28;20041;-92
2024/01/29 06:18:50;;;;;;;8.25;5.60;;;;;;;4.78;89.01;102448.06;5016484;28;20123;-91
2024/01/29 06:21:16;;;;;;;7.40;5.40;;;;;;;4.82;87.97;102449.16;5016139;28;20065;-93
2024/01/29 06:23:42;;;;;;;9.45;5.25;;;;;;;4.87;88.08;102452.03;5016699;28;20038;-95
2024/01/29 06:26:07;;;;;;;9.20;5.30;;;;;;;4.81;88.49;102455.22;5015955;28;20042;-95
2024/01/29 06:28:32;;;;;;;11.38;5.60;;;;;;;4.65;88.83;102434.16;4998977;28;20030;-92
2024/01/29 06:30:58;;;;;;;8.80;6.05;;;;;;;4.55;88.81;102418.72;4997106;28;20057;-93
2024/01/29 06:33:24;;;;;;;10.10;5.88;;;;;;;4.78;88.98;102455.91;4998534;28;20120;-93
2024/01/29 06:35:50;;;;;;;8.50;5.60;;;;;;;4.69;89.91;102455.38;5016615;28;20037;-93
2024/01/29 06:38:15;;;;;;;8.88;5.50;;;;;;;4.55;90.49;102444.88;4991370;28;20034;-89
2024/01/29 06:40:41;;;;;;;10.45;5.90;;;;;;;4.48;91.75;102465.44;5030955;28;20037;-91
2024/01/29 06:43:07;;;;;;;9.43;5.50;;;;;;;4.33;91.33;102446.19;5007129;28;20042;-93
2024/01/29 06:45:32;;;;;;;9.55;5.57;;;;;;;4.42;92.07;102469.41;4999784;28;20072;-92
2024/01/29 06:47:58;;;;;;;9.95;6.03;;;;;;;4.35;92.26;102473.34;4998575;28;20034;-93
2024/01/29 06:50:23;;;;;;;10.95;6.18;;;;;;;4.28;92.91;102468.53;4998662;28;20041;-92
2024/01/29 06:52:49;;;;;;;8.52;5.75;;;;;;;4.27;93.66;102470.25;5016103;28;20030;-92
2024/01/29 06:55:14;;;;;;;8.48;6.15;;;;;;;4.16;93.66;102439.91;5015975;28;20063;-91
2024/01/29 06:57:40;;;;;;;9.60;5.78;;;;;;;4.31;93.14;102462.59;5015817;28;20394;-92
2024/01/29 07:00:06;;;;;;;11.65;5.88;;;;;;;4.31;93.60;102467.84;5015288;28;20116;-93
2024/01/29 07:02:32;;;;;;;12.90;6.40;;;;;;;4.22;94.32;102468.16;4981789;28;20037;-93
2024/01/29 07:04:57;;;;;;;12.45;5.85;;;;;;;4.28;94.81;102476.38;5015666;28;20034;-93
2024/01/29 07:07:23;;;;;;;8.57;5.90;;;;;;;4.32;94.35;102493.19;5015505;28;20129;-93
2024/01/29 07:09:57;;;;;;;8.10;5.63;;;;;;;4.35;93.79;102482.91;5015665;28;20030;-94
2024/01/29 07:12:22;;;;;;;9.07;5.68;;;;;;;4.35;94.33;102491.66;5015243;28;20057;-93
2024/01/29 07:14:49;;;;;;;7.85;5.35;;;;;;;4.45;93.62;102495.75;4998201;28;20069;-94
2024/01/29 07:17:14;;;;;;;10.30;5.88;;;;;;;4.47;94.43;102488.91;5015485;28;20038;-94
2024/01/29 07:19:39;;;;;;;8.57;5.80;;;;;;;4.51;94.07;102490.91;5015406;28;20045;-92
2024/01/29 07:22:08;;;;;;;9.13;5.88;;;;;;;4.49;93.61;102477.72;5015142;28;20029;-93
2024/01/29 07:24:34;;;;;;;9.80;5.90;;;;;;;4.58;93.59;102490.44;4998259;28;20065;-92
2024/01/29 07:27:00;;;;;;;8.55;5.60;;;;;;;4.64;92.96;102503.94;5015419;28;20463;-93
2024/01/29 07:29:30;;;;;;;8.48;5.63;;;;;;;4.59;92.32;102497.53;5015730;28;20118;-93
2024/01/29 07:31:55;;;;;;;9.68;6.25;;;;;;;4.74;93.44;102505.41;5014858;28;20033;-92
2024/01/29 07:34:22;;;;;;;7.82;5.63;;;;;;;4.82;92.25;102506.78;4997728;28;20030;-93
2024/01/29 07:36:47;;;;;;;8.65;5.88;;;;;;;4.88;92.54;102501.00;5014920;28;20034;-94
2024/01/29 07:39:13;;;;;;;10.80;5.53;;;;;;;4.99;92.37;102515.66;5015001;28;20041;-93
2024/01/29 07:41:41;;;;;;;9.52;5.32;;;;;;;4.97;91.00;102498.94;5014925;28;20029;-92
2024/01/29 07:44:07;;;;;;;9.00;5.75;;;;;;;4.93;91.66;102496.97;5015061;28;20117;-93
2024/01/29 07:46:33;;;;;;;9.48;5.43;;;;;;;4.91;92.44;102507.31;5015227;28;20475;-94
2024/01/29 07:49:01;;;;;;;9.80;5.63;;;;;;;4.90;92.43;102521.25;5015425;28;20470;-94
2024/01/29 07:51:27;;;;;;;8.90;5.75;;;;;;;4.85;93.18;102516.53;5014636;28;20034;-93
2024/01/29 07:53:53;;;;;;;10.38;5.90;;;;;;;4.75;93.90;102501.97;5014657;28;20165;-95
2024/01/29 07:56:18;;;;;;;9.50;5.30;;;;;;;4.92;94.07;102530.06;4997933;28;20048;-93
2024/01/29 07:58:44;;;;;;;8.95;5.68;;;;;;;4.97;94.72;102518.19;5015175;28;20486;-93
2024/01/29 08:01:09;;;;;;;11.15;5.72;;;;;;;5.09;94.33;102522.34;5015498;28;20386;-92
2024/01/29 08:03:34;;;;;;;8.60;5.28;;;;;;;5.29;93.46;102534.91;4996875;28;20030;-91
2024/01/29 08:06:00;;;;;;;9.35;5.47;;;;;;;5.38;93.91;102535.44;5014408;28;20128;-93
2024/01/29 08:08:25;;;;;;;8.13;4.78;;;;;;;5.48;92.96;102529.03;5014293;28;20050;-92
2024/01/29 08:10:51;;;;;;;9.30;5.68;;;;;;;5.63;92.99;102523.78;5014671;28;20120;-92
2024/01/29 08:13:16;;;;;;;9.52;5.25;;;;;;;5.71;92.07;102509.41;5020903;28;20041;-90
2024/01/29 08:15:41;;;;;;;9.15;5.35;;;;;;;5.89;91.75;102525.28;5031589;28;20040;-90
2024/01/29 08:18:07;;;;;;;9.05;5.80;;;;;;;5.97;91.50;102535.41;5027079;28;20381;-92
2024/01/29 08:20:33;;;;;;;8.55;5.30;;;;;;;6.06;91.38;102524.53;5016389;28;20087;-93
2024/01/29 08:22:58;;;;;;;8.90;5.57;;;;;;;6.13;91.09;102515.28;5014819;28;20390;-92
2024/01/29 08:25:25;;;;;;;8.27;5.45;;;;;;;6.24;91.20;102520.28;4997001;28;20088;-93
2024/01/29 08:27:51;;;;;;;10.48;5.88;;;;;;;6.37;90.94;102534.09;5014979;28;20053;-92
2024/01/29 08:30:17;;;;;;;11.80;5.18;;;;;;;6.49;90.44;102546.19;5014265;28;20061;-91
2024/01/29 08:32:43;;;;;;;7.70;5.07;;;;;;;6.46;90.83;102526.72;5014753;28;20030;-94
2024/01/29 08:35:10;;;;;;;8.15;5.07;;;;;;;6.64;90.11;102546.13;5014357;28;20467;-92
2024/01/29 08:37:35;;;;;;;9.90;5.70;;;;;;;6.74;90.72;102543.16;4996503;28;20385;-92
2024/01/29 08:40:01;;;;;;;9.23;5.40;;;;;;;6.82;89.95;102540.94;4996774;28;20036;-94
2024/01/29 08:42:26;;;;;;;12.35;5.30;;;;;;;6.85;89.64;102535.88;5014188;28;20037;-91
2024/01/29 08:44:56;;;;;;;8.93;5.43;;;;;;;6.86;89.89;102531.50;4996842;28;20077;-94
2024/01/29 08:47:22;;;;;;;8.25;5.53;;;;;;;6.96;89.49;102539.94;5014374;28;20056;-94
2024/01/29 08:49:47;;;;;;;13.63;5.70;;;;;;;7.03;89.70;102536.81;5014343;28;20097;-94
2024/01/29 08:52:13;;;;;;;8.95;5.35;;;;;;;7.15;89.25;102536.56;4996249;28;20176;-93
2024/01/29 08:54:38;;;;;;;8.95;5.10;;;;;;;7.21;88.95;102510.56;4998342;28;20045;-93
2024/01/29 08:57:04;;;;;;;8.93;5.18;;;;;;;7.44;88.47;102518.72;5018051;28;20463;-91
2024/01/29 08:59:31;;;;;;;7.72;4.80;;;;;;;7.64;87.18;102522.34;5018275;28;20026;-90
2024/01/29 09:01:57;;;;;;;10.32;5.20;;;;;;;7.67;87.21;102519.88;5018016;28;20053;-91
2024/01/29 09:04:23;;;;;;;8.82;5.65;;;;;;;7.73;86.93;102531.59;5017711;28;20390;-89
2024/01/29 09:06:49;;;;;;;12.65;5.85;;;;;;;7.61;86.46;102517.84;5017615;28;20146;-90
2024/01/29 09:09:14;;;;;;;9.93;5.40;;;;;;;7.59;86.69;102510.72;4999533;28;20506;-89
2024/01/29 09:11:39;;;;;;;14.35;5.50;;;;;;;7.58;87.43;102516.78;5017238;28;20037;-89
2024/01/29 09:14:05;;;;;;;10.52;5.70;;;;;;;7.61;87.24;102493.25;5017483;28;20113;-91
2024/01/29 09:16:31;;;;;;;9.57;5.80;;;;;;;7.87;85.86;102520.84;5017340;28;20022;-92
2024/01/29 09:18:56;;;;;;;9.45;5.90;;;;;;;7.93;85.31;102524.69;4983612;28;20029;-91
2024/01/29 09:21:22;;;;;;;9.45;5.50;;;;;;;7.95;86.09;102527.38;5017507;28;20113;-90
2024/01/29 09:23:47;;;;;;;9.43;5.53;;;;;;;7.91;86.25;102522.78;5017308;28;20029;-88
2024/01/29 09:26:12;;;;;;;8.73;5.75;;;;;;;7.86;85.71;102526.94;5016846;28;20455;-90
2024/01/29 09:28:41;;;;;;;8.50;5.20;;;;;;;7.82;85.70;102522.34;5017508;28;20030;-90
2024/01/29 09:31:06;;;;;;;12.43;5.50;;;;;;;7.82;86.29;102528.50;5017907;28;20085;-88
2024/01/29 09:33:31;;;;;;;10.30;5.43;;;;;;;7.81;86.49;102529.34;5016822;28;20512;-94
2024/01/29 09:35:57;;;;;;;10.32;5.75;;;;;;;7.84;86.64;102526.88;5017825;28;20041;-91
2024/01/29 09:38:22;;;;;;;10.43;5.90;;;;;;;7.81;85.92;102524.09;5017394;28;20042;-88
2024/01/29 09:40:48;;;;;;;9.77;5.85;;;;;;;7.98;86.72;102532.81;5016983;28;20026;-87
2024/01/29 09:43:16;;;;;;;10.10;5.95;;;;;;;8.27;86.37;102515.75;5017083;28;20037;-88
2024/01/29 09:45:42;;;;;;;10.88;5.88;;;;;;;8.63;84.38;102527.13;5016567;28;20407;-89
2024/01/29 09:48:11;;;;;;;9.85;6.20;;;;;;;8.98;84.55;102533.06;5000382;28;20034;-86
2024/01/29 09:50:37;;;;;;;11.50;6.40;;;;;;;9.41;82.65;102538.47;5017330;28;20198;-86
2024/01/29 09:53:05;;;;;;;10.02;6.20;;;;;;;9.61;79.84;102549.88;5018460;28;20168;-89
2024/01/29 09:55:31;;;;;;;8.80;5.70;;;;;;;9.72;80.04;102537.09;5001161;28;20046;-87
2024/01/29 09:57:56;;;;;;;8.50;5.72;;;;;;;9.89;80.15;102540.44;5017258;28;20034;-88
2024/01/29 10:00:22;;;;;;;8.90;6.00;;;;;;;9.99;79.82;102548.81;4999634;28;20042;-87
2024/01/29 10:02:48;;;;;;;11.82;6.13;;;;;;;10.11;78.30;102543.13;5016758;28;20038;-84
2024/01/29 10:05:14;;;;;;;10.95;6.28;;;;;;;10.17;78.38;102547.75;5016286;28;20034;-87
2024/01/29 10:07:41;;;;;;;9.10;5.75;;;;;;;10.22;77.91;102548.81;5016573;28;20065;-89
2024/01/29 10:10:10;;;;;;;10.60;6.40;;;;;;;10.23;77.55;102558.53;4998998;28;20543;-85
2024/01/29 10:12:36;;;;;;;10.93;6.35;;;;;;;10.27;78.12;102561.41;5016198;28;20037;-86
2024/01/29 10:15:02;;;;;;;9.95;5.93;;;;;;;10.36;77.40;102566.16;5016325;28;20026;-88
2024/01/29 10:17:28;;;;;;;11.57;6.30;;;;;;;10.44;77.65;102561.16;4998837;28;20026;-90
2024/01/29 10:19:53;;;;;;;10.48;6.15;;;;;;;10.53;77.75;102558.88;5016469;28;20040;-88
2024/01/29 10:22:24;;;;;;;10.52;6.07;;;;;;;10.74;77.17;102567.63;5016303;28;20037;-86
2024/01/29 10:25:03;;;;;;;10.70;6.10;;;;;;;10.79;76.62;102559.84;5015743;28;20044;-86
2024/01/29 10:27:28;;;;;;;9.07;5.97;;;;;;;10.92;76.21;102574.44;5016172;28;20159;-89
2024/01/29 10:29:54;;;;;;;12.88;6.47;;;;;;;10.98;75.69;102578.22;5015921;28;20112;-87
2024/01/29 10:32:23;;;;;;;9.93;6.32;;;;;;;11.06;75.34;102565.28;4998309;28;20117;-87
2024/01/29 10:34:49;;;;;;;10.00;6.50;;;;;;;11.18;75.48;102557.78;5016053;28;20049;-87
2024/01/29 10:37:20;;;;;;;9.68;6.30;;;;;;;11.52;75.20;102570.47;5015913;28;20470;-89
2024/01/29 10:39:47;;;;;;;9.60;6.15;;;;;;;11.59;73.11;102566.25;5016020;28;20033;-89
2024/01/29 10:42:14;;;;;;;11.05;6.13;;;;;;;11.61;73.51;102558.38;5015638;28;20036;-88
2024/01/29 10:44:40;;;;;;;10.15;6.55;;;;;;;11.65;73.82;102579.72;5015950;28;20467;-88
2024/01/29 10:47:15;;;;;;;10.20;6.00;;;;;;;11.59;73.64;102552.13;4998319;28;20072;-85
2024/01/29 10:49:43;;;;;;;11.10;6.45;;;;;;;11.84;73.43;102557.44;5016288;28;20112;-88
2024/01/29 10:52:10;;;;;;;9.60;6.57;;;;;;;12.03;72.65;102559.84;4998518;28;20029;-87
2024/01/29 10:54:37;;;;;;;9.02;6.32;;;;;;;12.11;71.98;102569.75;4997958;28;20088;-89
2024/01/29 10:57:03;;;;;;;10.82;6.35;;;;;;;12.22;72.11;102565.72;4998058;28;20061;-87
2024/01/29 10:59:29;;;;;;;13.50;6.60;;;;;;;12.22;71.15;102556.00;5015442;28;20501;-91
2024/01/29 11:01:56;;;;;;;9.95;6.63;;;;;;;12.31;71.50;102562.47;4998573;28;20037;-88
2024/01/29 11:04:21;;;;;;;9.85;6.55;;;;;;;12.54;70.53;102566.69;4983794;28;20207;-96
2024/01/29 11:07:16;;;;;;;9.75;6.47;;;;;;;12.76;70.21;102587.72;5019753;28;20502;-95
2024/01/29 11:10:09;;;;;;;15.90;6.68;;;;;;;12.75;70.03;102561.13;5023542;28;20040;-96
2024/01/29 11:12:37;;;;;;;11.18;6.35;;;;;;;12.94;68.83;102562.59;5024120;28;20048;-96
2024/01/29 11:15:04;;;;;;;11.60;6.40;;;;;;;13.24;69.33;102575.84;5022957;28;20109;-93
2024/01/29 11:17:30;;;;;;;11.13;6.70;;;;;;;13.37;68.65;102559.41;5024246;28;20025;-95
2024/01/29 11:20:04;;;;;;;11.40;6.78;;;;;;;13.52;68.15;102558.88;5024004;28;20026;-94
2024/01/29 11:22:40;;;;;;;12.15;6.85;;;;;;;13.52;67.54;102567.75;5028895;28;20101;-94
2024/01/29 11:25:14;;;;;;;12.10;6.65;;;;;;;13.49;67.44;102559.72;5035882;28;20030;-90